sensor_id;sensor_type;location;lat;lon;timestamp;P1;durP1;ratioP1;P2;durP2;ratioP2
28714;SDS011;15886;49.170;14.572;2023-06-19T00:02:19;14.30;;;10.02;;
28714;SDS011;15886;49.170;14.572;2023-06-19T00:04:48;16.52;;;10.93;;
28714;SDS011;15886;49.170;14.572;2023-06-19T00:07:25;14.50;;;10.30;;
28714;SDS011;15886;49.170;14.572;2023-06-19T00:09:53;13.60;;;9.85;;
28714;SDS011;15886;49.170;14.572;2023-06-19T00:12:22;15.80;;;9.65;;
28714;SDS011;15886;49.170;14.572;2023-06-19T00:14:50;16.30;;;11.25;;
28714;SDS011;15886;49.170;14.572;2023-06-19T00:17:18;14.90;;;9.93;;
28714;SDS011;15886;49.170;14.572;2023-06-19T00:19:47;18.17;;;10.73;;
28714;SDS011;15886;49.170;14.572;2023-06-19T00:22:16;15.80;;;10.50;;
28714;SDS011;15886;49.170;14.572;2023-06-19T00:24:49;15.55;;;10.63;;
28714;SDS011;15886;49.170;14.572;2023-06-19T00:27:19;13.65;;;10.25;;
28714;SDS011;15886;49.170;14.572;2023-06-19T00:29:52;14.35;;;10.13;;
28714;SDS011;15886;49.170;14.572;2023-06-19T00:32:21;16.63;;;10.90;;
28714;SDS011;15886;49.170;14.572;2023-06-19T00:34:49;14.27;;;10.23;;
28714;SDS011;15886;49.170;14.572;2023-06-19T00:37:24;15.52;;;10.00;;
28714;SDS011;15886;49.170;14.572;2023-06-19T00:39:52;17.47;;;10.27;;
28714;SDS011;15886;49.170;14.572;2023-06-19T00:42:21;14.90;;;10.15;;
28714;SDS011;15886;49.170;14.572;2023-06-19T00:44:49;14.93;;;10.50;;
28714;SDS011;15886;49.170;14.572;2023-06-19T00:47:18;14.48;;;10.40;;
28714;SDS011;15886;49.170;14.572;2023-06-19T00:49:46;13.98;;;10.13;;
28714;SDS011;15886;49.170;14.572;2023-06-19T00:52:14;18.48;;;10.55;;
28714;SDS011;15886;49.170;14.572;2023-06-19T00:54:43;16.30;;;10.90;;
28714;SDS011;15886;49.170;14.572;2023-06-19T00:57:11;17.27;;;10.98;;
28714;SDS011;15886;49.170;14.572;2023-06-19T00:59:40;12.57;;;9.77;;
28714;SDS011;15886;49.170;14.572;2023-06-19T01:02:08;15.80;;;11.05;;
28714;SDS011;15886;49.170;14.572;2023-06-19T01:04:37;15.02;;;10.20;;
28714;SDS011;15886;49.170;14.572;2023-06-19T01:07:07;16.45;;;10.57;;
28714;SDS011;15886;49.170;14.572;2023-06-19T01:09:55;24.98;;;10.90;;
28714;SDS011;15886;49.170;14.572;2023-06-19T01:12:28;19.63;;;11.73;;
28714;SDS011;15886;49.170;14.572;2023-06-19T01:14:59;20.20;;;11.05;;
28714;SDS011;15886;49.170;14.572;2023-06-19T01:17:29;14.80;;;10.38;;
28714;SDS011;15886;49.170;14.572;2023-06-19T01:19:57;19.80;;;11.45;;
28714;SDS011;15886;49.170;14.572;2023-06-19T01:22:30;14.82;;;10.35;;
28714;SDS011;15886;49.170;14.572;2023-06-19T01:24:59;20.02;;;11.25;;
28714;SDS011;15886;49.170;14.572;2023-06-19T01:27:27;17.15;;;10.80;;
28714;SDS011;15886;49.170;14.572;2023-06-19T01:29:59;15.57;;;10.57;;
28714;SDS011;15886;49.170;14.572;2023-06-19T01:35:02;15.25;;;10.77;;
28714;SDS011;15886;49.170;14.572;2023-06-19T01:37:40;16.67;;;11.20;;
28714;SDS011;15886;49.170;14.572;2023-06-19T01:40:09;14.73;;;10.48;;
28714;SDS011;15886;49.170;14.572;2023-06-19T01:42:38;25.05;;;12.45;;
28714;SDS011;15886;49.170;14.572;2023-06-19T01:45:07;15.40;;;10.85;;
28714;SDS011;15886;49.170;14.572;2023-06-19T01:50:11;14.55;;;10.90;;
28714;SDS011;15886;49.170;14.572;2023-06-19T01:52:39;19.80;;;12.10;;
28714;SDS011;15886;49.170;14.572;2023-06-19T01:55:08;18.35;;;11.88;;
28714;SDS011;15886;49.170;14.572;2023-06-19T01:57:36;16.48;;;10.85;;
28714;SDS011;15886;49.170;14.572;2023-06-19T02:00:06;18.27;;;10.60;;
28714;SDS011;15886;49.170;14.572;2023-06-19T02:02:41;18.30;;;11.45;;
28714;SDS011;15886;49.170;14.572;2023-06-19T02:05:11;18.13;;;10.20;;
28714;SDS011;15886;49.170;14.572;2023-06-19T02:07:41;26.35;;;12.25;;
28714;SDS011;15886;49.170;14.572;2023-06-19T02:10:09;22.75;;;11.73;;
28714;SDS011;15886;49.170;14.572;2023-06-19T02:12:39;17.38;;;11.75;;
28714;SDS011;15886;49.170;14.572;2023-06-19T02:15:07;19.42;;;11.45;;
28714;SDS011;15886;49.170;14.572;2023-06-19T02:17:36;20.58;;;11.38;;
28714;SDS011;15886;49.170;14.572;2023-06-19T02:20:05;22.63;;;10.80;;
28714;SDS011;15886;49.170;14.572;2023-06-19T02:22:36;15.40;;;10.50;;
28714;SDS011;15886;49.170;14.572;2023-06-19T02:25:10;13.63;;;10.32;;
28714;SDS011;15886;49.170;14.572;2023-06-19T02:27:42;18.17;;;11.00;;
28714;SDS011;15886;49.170;14.572;2023-06-19T02:30:12;18.40;;;10.93;;
28714;SDS011;15886;49.170;14.572;2023-06-19T02:32:40;19.80;;;10.88;;
28714;SDS011;15886;49.170;14.572;2023-06-19T02:35:09;17.98;;;10.60;;
28714;SDS011;15886;49.170;14.572;2023-06-19T02:37:38;17.13;;;10.85;;
28714;SDS011;15886;49.170;14.572;2023-06-19T02:40:06;18.10;;;11.23;;
28714;SDS011;15886;49.170;14.572;2023-06-19T02:42:37;19.95;;;11.05;;
28714;SDS011;15886;49.170;14.572;2023-06-19T02:45:05;17.55;;;11.45;;
28714;SDS011;15886;49.170;14.572;2023-06-19T02:47:34;17.92;;;11.25;;
28714;SDS011;15886;49.170;14.572;2023-06-19T02:50:04;18.67;;;11.48;;
28714;SDS011;15886;49.170;14.572;2023-06-19T02:52:35;16.40;;;10.55;;
28714;SDS011;15886;49.170;14.572;2023-06-19T02:55:03;15.60;;;10.80;;
28714;SDS011;15886;49.170;14.572;2023-06-19T02:57:34;17.15;;;10.77;;
28714;SDS011;15886;49.170;14.572;2023-06-19T03:00:04;14.60;;;10.32;;
28714;SDS011;15886;49.170;14.572;2023-06-19T03:02:36;15.82;;;10.20;;
28714;SDS011;15886;49.170;14.572;2023-06-19T03:05:09;17.27;;;11.18;;
28714;SDS011;15886;49.170;14.572;2023-06-19T03:07:37;19.25;;;10.48;;
28714;SDS011;15886;49.170;14.572;2023-06-19T03:10:05;17.23;;;11.32;;
28714;SDS011;15886;49.170;14.572;2023-06-19T03:12:34;24.95;;;11.50;;
28714;SDS011;15886;49.170;14.572;2023-06-19T03:15:02;18.88;;;10.73;;
28714;SDS011;15886;49.170;14.572;2023-06-19T03:17:33;17.80;;;11.55;;
28714;SDS011;15886;49.170;14.572;2023-06-19T03:20:02;19.20;;;11.48;;
28714;SDS011;15886;49.170;14.572;2023-06-19T03:22:34;17.17;;;10.73;;
28714;SDS011;15886;49.170;14.572;2023-06-19T03:25:02;17.15;;;12.20;;
28714;SDS011;15886;49.170;14.572;2023-06-19T03:27:31;18.08;;;11.32;;
28714;SDS011;15886;49.170;14.572;2023-06-19T03:30:00;16.75;;;12.18;;
28714;SDS011;15886;49.170;14.572;2023-06-19T03:32:37;16.10;;;11.52;;
28714;SDS011;15886;49.170;14.572;2023-06-19T03:35:13;17.33;;;11.27;;
28714;SDS011;15886;49.170;14.572;2023-06-19T03:37:43;17.10;;;11.85;;
28714;SDS011;15886;49.170;14.572;2023-06-19T03:40:13;18.58;;;11.90;;
28714;SDS011;15886;49.170;14.572;2023-06-19T03:42:44;23.85;;;11.48;;
28714;SDS011;15886;49.170;14.572;2023-06-19T03:45:13;15.57;;;11.38;;
28714;SDS011;15886;49.170;14.572;2023-06-19T03:47:41;19.58;;;11.38;;
28714;SDS011;15886;49.170;14.572;2023-06-19T03:50:09;17.00;;;11.13;;
28714;SDS011;15886;49.170;14.572;2023-06-19T03:52:45;18.05;;;11.63;;
28714;SDS011;15886;49.170;14.572;2023-06-19T03:55:17;18.50;;;11.65;;
28714;SDS011;15886;49.170;14.572;2023-06-19T03:57:46;14.32;;;10.88;;
28714;SDS011;15886;49.170;14.572;2023-06-19T04:00:15;21.65;;;11.02;;
28714;SDS011;15886;49.170;14.572;2023-06-19T04:02:48;16.23;;;11.63;;
28714;SDS011;15886;49.170;14.572;2023-06-19T04:05:18;16.52;;;11.82;;
28714;SDS011;15886;49.170;14.572;2023-06-19T04:07:47;18.38;;;11.93;;
28714;SDS011;15886;49.170;14.572;2023-06-19T04:10:15;17.58;;;12.73;;
28714;SDS011;15886;49.170;14.572;2023-06-19T04:12:43;19.05;;;12.38;;
28714;SDS011;15886;49.170;14.572;2023-06-19T04:15:12;16.27;;;12.27;;
28714;SDS011;15886;49.170;14.572;2023-06-19T04:17:41;19.02;;;12.90;;
28714;SDS011;15886;49.170;14.572;2023-06-19T04:20:10;18.40;;;11.85;;
28714;SDS011;15886;49.170;14.572;2023-06-19T04:22:40;17.45;;;11.90;;
28714;SDS011;15886;49.170;14.572;2023-06-19T04:25:09;19.85;;;13.15;;
28714;SDS011;15886;49.170;14.572;2023-06-19T04:27:38;18.23;;;12.38;;
28714;SDS011;15886;49.170;14.572;2023-06-19T04:30:06;17.55;;;12.68;;
28714;SDS011;15886;49.170;14.572;2023-06-19T04:32:35;18.42;;;12.70;;
28714;SDS011;15886;49.170;14.572;2023-06-19T04:35:14;18.85;;;12.98;;
28714;SDS011;15886;49.170;14.572;2023-06-19T04:37:45;21.17;;;14.35;;
28714;SDS011;15886;49.170;14.572;2023-06-19T04:40:16;20.58;;;12.68;;
28714;SDS011;15886;49.170;14.572;2023-06-19T04:42:44;19.55;;;14.20;;
28714;SDS011;15886;49.170;14.572;2023-06-19T04:45:12;20.90;;;13.27;;
28714;SDS011;15886;49.170;14.572;2023-06-19T04:47:45;19.95;;;13.63;;
28714;SDS011;15886;49.170;14.572;2023-06-19T04:50:18;20.35;;;13.77;;
28714;SDS011;15886;49.170;14.572;2023-06-19T04:52:46;19.38;;;12.45;;
28714;SDS011;15886;49.170;14.572;2023-06-19T04:55:18;19.05;;;12.23;;
28714;SDS011;15886;49.170;14.572;2023-06-19T04:57:46;20.65;;;13.15;;
28714;SDS011;15886;49.170;14.572;2023-06-19T05:00:14;17.98;;;13.23;;
28714;SDS011;15886;49.170;14.572;2023-06-19T05:02:46;19.75;;;13.38;;
28714;SDS011;15886;49.170;14.572;2023-06-19T05:05:15;17.95;;;12.48;;
28714;SDS011;15886;49.170;14.572;2023-06-19T05:07:47;18.00;;;12.63;;
28714;SDS011;15886;49.170;14.572;2023-06-19T05:10:15;20.80;;;12.45;;
28714;SDS011;15886;49.170;14.572;2023-06-19T05:12:44;18.42;;;13.00;;
28714;SDS011;15886;49.170;14.572;2023-06-19T05:15:12;21.85;;;13.30;;
28714;SDS011;15886;49.170;14.572;2023-06-19T05:17:41;16.90;;;12.70;;
28714;SDS011;15886;49.170;14.572;2023-06-19T05:20:09;16.00;;;12.05;;
28714;SDS011;15886;49.170;14.572;2023-06-19T05:22:39;19.15;;;13.68;;
28714;SDS011;15886;49.170;14.572;2023-06-19T05:25:07;20.55;;;14.13;;
28714;SDS011;15886;49.170;14.572;2023-06-19T05:27:35;19.85;;;13.90;;
28714;SDS011;15886;49.170;14.572;2023-06-19T05:30:04;19.10;;;13.40;;
28714;SDS011;15886;49.170;14.572;2023-06-19T05:32:32;24.52;;;14.18;;
28714;SDS011;15886;49.170;14.572;2023-06-19T05:35:01;21.83;;;12.77;;
28714;SDS011;15886;49.170;14.572;2023-06-19T05:37:29;21.02;;;13.40;;
28714;SDS011;15886;49.170;14.572;2023-06-19T05:39:57;20.33;;;13.93;;
28714;SDS011;15886;49.170;14.572;2023-06-19T05:42:26;18.27;;;12.88;;
28714;SDS011;15886;49.170;14.572;2023-06-19T05:44:54;23.85;;;13.98;;
28714;SDS011;15886;49.170;14.572;2023-06-19T05:47:23;19.40;;;13.82;;
28714;SDS011;15886;49.170;14.572;2023-06-19T05:49:52;17.58;;;13.07;;
28714;SDS011;15886;49.170;14.572;2023-06-19T05:52:21;24.55;;;13.15;;
28714;SDS011;15886;49.170;14.572;2023-06-19T05:54:49;20.75;;;15.00;;
28714;SDS011;15886;49.170;14.572;2023-06-19T05:57:18;24.38;;;15.93;;
28714;SDS011;15886;49.170;14.572;2023-06-19T05:59:48;23.65;;;15.32;;
28714;SDS011;15886;49.170;14.572;2023-06-19T06:02:17;18.30;;;12.95;;
28714;SDS011;15886;49.170;14.572;2023-06-19T06:04:46;18.02;;;13.13;;
28714;SDS011;15886;49.170;14.572;2023-06-19T06:07:14;20.08;;;13.98;;
28714;SDS011;15886;49.170;14.572;2023-06-19T06:09:42;22.00;;;15.00;;
28714;SDS011;15886;49.170;14.572;2023-06-19T06:12:10;26.60;;;15.07;;
28714;SDS011;15886;49.170;14.572;2023-06-19T06:14:40;26.00;;;14.65;;
28714;SDS011;15886;49.170;14.572;2023-06-19T06:17:09;21.77;;;15.18;;
28714;SDS011;15886;49.170;14.572;2023-06-19T06:19:38;23.55;;;13.73;;
28714;SDS011;15886;49.170;14.572;2023-06-19T06:22:06;20.00;;;13.60;;
28714;SDS011;15886;49.170;14.572;2023-06-19T06:24:35;20.00;;;14.93;;
28714;SDS011;15886;49.170;14.572;2023-06-19T06:27:03;31.30;;;17.27;;
28714;SDS011;15886;49.170;14.572;2023-06-19T06:29:32;26.88;;;16.60;;
28714;SDS011;15886;49.170;14.572;2023-06-19T06:32:04;25.73;;;16.25;;
28714;SDS011;15886;49.170;14.572;2023-06-19T06:34:41;96.45;;;42.42;;
28714;SDS011;15886;49.170;14.572;2023-06-19T06:37:11;46.17;;;22.17;;
28714;SDS011;15886;49.170;14.572;2023-06-19T06:39:39;29.08;;;18.35;;
28714;SDS011;15886;49.170;14.572;2023-06-19T06:42:07;21.05;;;15.52;;
28714;SDS011;15886;49.170;14.572;2023-06-19T06:44:35;19.25;;;14.27;;
28714;SDS011;15886;49.170;14.572;2023-06-19T06:47:04;20.25;;;13.75;;
28714;SDS011;15886;49.170;14.572;2023-06-19T06:49:32;22.00;;;14.55;;
28714;SDS011;15886;49.170;14.572;2023-06-19T06:52:00;19.52;;;14.20;;
28714;SDS011;15886;49.170;14.572;2023-06-19T06:54:29;22.92;;;12.95;;
28714;SDS011;15886;49.170;14.572;2023-06-19T06:56:58;22.20;;;14.98;;
28714;SDS011;15886;49.170;14.572;2023-06-19T06:59:28;26.55;;;16.75;;
28714;SDS011;15886;49.170;14.572;2023-06-19T07:01:56;23.80;;;16.95;;
28714;SDS011;15886;49.170;14.572;2023-06-19T07:04:24;25.67;;;16.95;;
28714;SDS011;15886;49.170;14.572;2023-06-19T07:06:53;21.65;;;15.27;;
28714;SDS011;15886;49.170;14.572;2023-06-19T07:09:21;22.33;;;15.43;;
28714;SDS011;15886;49.170;14.572;2023-06-19T07:11:49;21.33;;;15.93;;
28714;SDS011;15886;49.170;14.572;2023-06-19T07:14:19;25.45;;;14.48;;
28714;SDS011;15886;49.170;14.572;2023-06-19T07:16:48;22.77;;;15.90;;
28714;SDS011;15886;49.170;14.572;2023-06-19T07:19:17;18.88;;;13.93;;
28714;SDS011;15886;49.170;14.572;2023-06-19T07:21:46;21.17;;;15.20;;
28714;SDS011;15886;49.170;14.572;2023-06-19T07:24:14;20.00;;;14.07;;
28714;SDS011;15886;49.170;14.572;2023-06-19T07:26:42;18.95;;;12.77;;
28714;SDS011;15886;49.170;14.572;2023-06-19T07:29:12;20.02;;;12.20;;
28714;SDS011;15886;49.170;14.572;2023-06-19T07:31:41;17.80;;;12.55;;
28714;SDS011;15886;49.170;14.572;2023-06-19T07:34:12;19.30;;;13.38;;
28714;SDS011;15886;49.170;14.572;2023-06-19T07:36:40;19.75;;;11.77;;
28714;SDS011;15886;49.170;14.572;2023-06-19T07:39:09;17.25;;;12.50;;
28714;SDS011;15886;49.170;14.572;2023-06-19T07:41:40;19.25;;;13.30;;
28714;SDS011;15886;49.170;14.572;2023-06-19T07:44:08;23.40;;;12.73;;
28714;SDS011;15886;49.170;14.572;2023-06-19T07:46:36;19.35;;;13.32;;
28714;SDS011;15886;49.170;14.572;2023-06-19T07:49:05;16.80;;;11.70;;
28714;SDS011;15886;49.170;14.572;2023-06-19T07:51:33;17.20;;;12.27;;
28714;SDS011;15886;49.170;14.572;2023-06-19T07:54:01;19.05;;;12.15;;
28714;SDS011;15886;49.170;14.572;2023-06-19T07:56:30;14.98;;;11.48;;
28714;SDS011;15886;49.170;14.572;2023-06-19T07:58:59;16.52;;;11.60;;
28714;SDS011;15886;49.170;14.572;2023-06-19T08:01:28;17.83;;;12.82;;
28714;SDS011;15886;49.170;14.572;2023-06-19T08:03:56;16.48;;;12.63;;
28714;SDS011;15886;49.170;14.572;2023-06-19T08:06:27;16.92;;;12.45;;
28714;SDS011;15886;49.170;14.572;2023-06-19T08:08:55;24.00;;;12.45;;
28714;SDS011;15886;49.170;14.572;2023-06-19T08:11:23;20.25;;;13.38;;
28714;SDS011;15886;49.170;14.572;2023-06-19T08:13:51;18.05;;;12.30;;
28714;SDS011;15886;49.170;14.572;2023-06-19T08:16:20;15.55;;;12.02;;
28714;SDS011;15886;49.170;14.572;2023-06-19T08:18:48;15.88;;;12.00;;
28714;SDS011;15886;49.170;14.572;2023-06-19T08:21:17;15.77;;;11.23;;
28714;SDS011;15886;49.170;14.572;2023-06-19T08:23:45;14.85;;;12.07;;
28714;SDS011;15886;49.170;14.572;2023-06-19T08:26:13;15.73;;;11.00;;
28714;SDS011;15886;49.170;14.572;2023-06-19T08:28:41;14.95;;;11.15;;
28714;SDS011;15886;49.170;14.572;2023-06-19T08:31:10;16.60;;;12.25;;
28714;SDS011;15886;49.170;14.572;2023-06-19T08:33:38;13.18;;;9.52;;
28714;SDS011;15886;49.170;14.572;2023-06-19T08:36:06;15.40;;;11.25;;
28714;SDS011;15886;49.170;14.572;2023-06-19T08:38:35;17.40;;;11.88;;
28714;SDS011;15886;49.170;14.572;2023-06-19T08:41:03;15.57;;;11.52;;
28714;SDS011;15886;49.170;14.572;2023-06-19T08:43:31;16.10;;;11.05;;
28714;SDS011;15886;49.170;14.572;2023-06-19T08:48:28;17.60;;;12.63;;
28714;SDS011;15886;49.170;14.572;2023-06-19T08:50:57;12.80;;;9.85;;
28714;SDS011;15886;49.170;14.572;2023-06-19T08:53:25;13.35;;;9.32;;
28714;SDS011;15886;49.170;14.572;2023-06-19T08:55:54;17.50;;;11.20;;
28714;SDS011;15886;49.170;14.572;2023-06-19T08:58:25;10.80;;;8.15;;
28714;SDS011;15886;49.170;14.572;2023-06-19T09:00:53;15.05;;;8.75;;
28714;SDS011;15886;49.170;14.572;2023-06-19T09:03:22;12.30;;;9.10;;
28714;SDS011;15886;49.170;14.572;2023-06-19T09:05:50;13.60;;;10.30;;
28714;SDS011;15886;49.170;14.572;2023-06-19T09:08:20;14.13;;;10.45;;
28714;SDS011;15886;49.170;14.572;2023-06-19T09:10:59;12.77;;;9.50;;
28714;SDS011;15886;49.170;14.572;2023-06-19T09:13:32;18.90;;;11.73;;
28714;SDS011;15886;49.170;14.572;2023-06-19T09:16:05;17.08;;;11.27;;
28714;SDS011;15886;49.170;14.572;2023-06-19T09:18:44;14.93;;;9.65;;
28714;SDS011;15886;49.170;14.572;2023-06-19T09:21:16;12.63;;;8.63;;
28714;SDS011;15886;49.170;14.572;2023-06-19T09:23:45;9.88;;;7.35;;
28714;SDS011;15886;49.170;14.572;2023-06-19T09:26:17;10.77;;;8.45;;
28714;SDS011;15886;49.170;14.572;2023-06-19T09:28:46;9.98;;;7.55;;
28714;SDS011;15886;49.170;14.572;2023-06-19T09:31:17;10.20;;;8.05;;
28714;SDS011;15886;49.170;14.572;2023-06-19T09:33:45;10.35;;;7.65;;
28714;SDS011;15886;49.170;14.572;2023-06-19T09:36:14;12.85;;;9.18;;
28714;SDS011;15886;49.170;14.572;2023-06-19T09:38:42;9.48;;;7.68;;
28714;SDS011;15886;49.170;14.572;2023-06-19T09:41:12;12.07;;;7.22;;
28714;SDS011;15886;49.170;14.572;2023-06-19T09:43:42;12.25;;;7.95;;
28714;SDS011;15886;49.170;14.572;2023-06-19T09:46:12;8.13;;;6.47;;
28714;SDS011;15886;49.170;14.572;2023-06-19T09:48:45;16.30;;;10.30;;
28714;SDS011;15886;49.170;14.572;2023-06-19T09:51:17;9.35;;;6.88;;
28714;SDS011;15886;49.170;14.572;2023-06-19T09:53:54;8.95;;;6.75;;
28714;SDS011;15886;49.170;14.572;2023-06-19T09:56:22;14.85;;;10.15;;
28714;SDS011;15886;49.170;14.572;2023-06-19T09:58:52;9.40;;;8.35;;
28714;SDS011;15886;49.170;14.572;2023-06-19T10:01:21;14.98;;;8.52;;
28714;SDS011;15886;49.170;14.572;2023-06-19T10:03:50;22.70;;;9.60;;
28714;SDS011;15886;49.170;14.572;2023-06-19T10:06:29;10.27;;;7.85;;
28714;SDS011;15886;49.170;14.572;2023-06-19T10:09:05;7.97;;;6.72;;
28714;SDS011;15886;49.170;14.572;2023-06-19T10:11:51;14.65;;;9.50;;
28714;SDS011;15886;49.170;14.572;2023-06-19T10:14:20;14.00;;;9.50;;
28714;SDS011;15886;49.170;14.572;2023-06-19T10:16:48;8.52;;;6.78;;
28714;SDS011;15886;49.170;14.572;2023-06-19T10:19:21;7.90;;;6.03;;
28714;SDS011;15886;49.170;14.572;2023-06-19T10:21:52;9.30;;;6.63;;
28714;SDS011;15886;49.170;14.572;2023-06-19T10:24:22;8.18;;;6.43;;
28714;SDS011;15886;49.170;14.572;2023-06-19T10:27:01;11.88;;;9.65;;
28714;SDS011;15886;49.170;14.572;2023-06-19T10:29:39;9.63;;;7.88;;
28714;SDS011;15886;49.170;14.572;2023-06-19T10:32:07;9.60;;;6.63;;
28714;SDS011;15886;49.170;14.572;2023-06-19T10:34:36;9.82;;;7.57;;
28714;SDS011;15886;49.170;14.572;2023-06-19T10:37:06;8.60;;;6.43;;
28714;SDS011;15886;49.170;14.572;2023-06-19T10:39:34;8.73;;;6.55;;
28714;SDS011;15886;49.170;14.572;2023-06-19T10:42:05;8.10;;;6.50;;
28714;SDS011;15886;49.170;14.572;2023-06-19T10:44:34;10.75;;;6.40;;
28714;SDS011;15886;49.170;14.572;2023-06-19T10:47:05;9.52;;;7.20;;
28714;SDS011;15886;49.170;14.572;2023-06-19T10:49:34;8.95;;;6.88;;
28714;SDS011;15886;49.170;14.572;2023-06-19T10:52:04;10.93;;;6.72;;
28714;SDS011;15886;49.170;14.572;2023-06-19T10:54:32;7.57;;;6.43;;
28714;SDS011;15886;49.170;14.572;2023-06-19T10:57:03;8.40;;;6.50;;
28714;SDS011;15886;49.170;14.572;2023-06-19T10:59:33;9.77;;;6.47;;
28714;SDS011;15886;49.170;14.572;2023-06-19T11:02:02;8.80;;;5.97;;
28714;SDS011;15886;49.170;14.572;2023-06-19T11:04:33;7.15;;;5.72;;
28714;SDS011;15886;49.170;14.572;2023-06-19T11:07:06;7.55;;;6.25;;
28714;SDS011;15886;49.170;14.572;2023-06-19T11:09:35;8.93;;;6.70;;
28714;SDS011;15886;49.170;14.572;2023-06-19T11:12:04;9.40;;;6.18;;
28714;SDS011;15886;49.170;14.572;2023-06-19T11:14:36;10.00;;;7.57;;
28714;SDS011;15886;49.170;14.572;2023-06-19T11:17:08;8.35;;;6.10;;
28714;SDS011;15886;49.170;14.572;2023-06-19T11:19:37;7.40;;;6.47;;
28714;SDS011;15886;49.170;14.572;2023-06-19T11:22:07;7.70;;;6.20;;
28714;SDS011;15886;49.170;14.572;2023-06-19T11:24:36;11.00;;;6.57;;
28714;SDS011;15886;49.170;14.572;2023-06-19T11:27:06;7.97;;;5.97;;
28714;SDS011;15886;49.170;14.572;2023-06-19T11:29:43;11.60;;;7.93;;
28714;SDS011;15886;49.170;14.572;2023-06-19T11:32:14;7.78;;;6.32;;
28714;SDS011;15886;49.170;14.572;2023-06-19T11:34:42;28.00;;;8.23;;
28714;SDS011;15886;49.170;14.572;2023-06-19T11:37:17;8.05;;;6.38;;
28714;SDS011;15886;49.170;14.572;2023-06-19T11:39:47;8.60;;;6.22;;
28714;SDS011;15886;49.170;14.572;2023-06-19T11:42:16;8.65;;;6.15;;
28714;SDS011;15886;49.170;14.572;2023-06-19T11:44:54;6.18;;;5.47;;
28714;SDS011;15886;49.170;14.572;2023-06-19T11:47:23;7.47;;;5.68;;
28714;SDS011;15886;49.170;14.572;2023-06-19T11:49:51;9.13;;;6.57;;
28714;SDS011;15886;49.170;14.572;2023-06-19T11:52:20;8.23;;;6.10;;
28714;SDS011;15886;49.170;14.572;2023-06-19T11:54:49;7.28;;;5.50;;
28714;SDS011;15886;49.170;14.572;2023-06-19T11:57:17;8.50;;;6.30;;
28714;SDS011;15886;49.170;14.572;2023-06-19T11:59:46;7.07;;;5.53;;
28714;SDS011;15886;49.170;14.572;2023-06-19T12:02:14;6.57;;;5.47;;
28714;SDS011;15886;49.170;14.572;2023-06-19T12:04:42;8.35;;;6.07;;
28714;SDS011;15886;49.170;14.572;2023-06-19T12:07:11;10.18;;;6.75;;
28714;SDS011;15886;49.170;14.572;2023-06-19T12:09:39;6.32;;;5.35;;
28714;SDS011;15886;49.170;14.572;2023-06-19T12:12:14;7.00;;;5.45;;
28714;SDS011;15886;49.170;14.572;2023-06-19T12:14:43;7.15;;;5.60;;
28714;SDS011;15886;49.170;14.572;2023-06-19T12:17:12;7.32;;;5.50;;
28714;SDS011;15886;49.170;14.572;2023-06-19T12:19:40;7.68;;;5.57;;
28714;SDS011;15886;49.170;14.572;2023-06-19T12:22:08;9.55;;;5.43;;
28714;SDS011;15886;49.170;14.572;2023-06-19T12:24:36;7.72;;;6.03;;
28714;SDS011;15886;49.170;14.572;2023-06-19T12:29:37;7.03;;;5.50;;
28714;SDS011;15886;49.170;14.572;2023-06-19T12:32:05;6.85;;;5.13;;
28714;SDS011;15886;49.170;14.572;2023-06-19T12:34:33;7.63;;;5.13;;
28714;SDS011;15886;49.170;14.572;2023-06-19T12:37:02;6.97;;;5.55;;
28714;SDS011;15886;49.170;14.572;2023-06-19T12:39:30;7.30;;;5.53;;
28714;SDS011;15886;49.170;14.572;2023-06-19T12:41:58;6.55;;;5.22;;
28714;SDS011;15886;49.170;14.572;2023-06-19T12:44:27;7.68;;;5.70;;
28714;SDS011;15886;49.170;14.572;2023-06-19T12:46:55;7.47;;;5.85;;
28714;SDS011;15886;49.170;14.572;2023-06-19T12:49:25;7.32;;;5.70;;
28714;SDS011;15886;49.170;14.572;2023-06-19T12:51:54;7.75;;;5.47;;
28714;SDS011;15886;49.170;14.572;2023-06-19T12:54:22;7.10;;;5.63;;
28714;SDS011;15886;49.170;14.572;2023-06-19T12:56:55;6.28;;;5.10;;
28714;SDS011;15886;49.170;14.572;2023-06-19T12:59:24;7.43;;;5.53;;
28714;SDS011;15886;49.170;14.572;2023-06-19T13:01:52;7.28;;;5.30;;
28714;SDS011;15886;49.170;14.572;2023-06-19T13:04:20;6.68;;;5.03;;
28714;SDS011;15886;49.170;14.572;2023-06-19T13:06:48;7.32;;;5.78;;
28714;SDS011;15886;49.170;14.572;2023-06-19T13:09:17;9.80;;;5.82;;
28714;SDS011;15886;49.170;14.572;2023-06-19T13:11:45;7.10;;;5.32;;
28714;SDS011;15886;49.170;14.572;2023-06-19T13:14:13;7.28;;;5.78;;
28714;SDS011;15886;49.170;14.572;2023-06-19T13:16:41;8.30;;;5.70;;
28714;SDS011;15886;49.170;14.572;2023-06-19T13:19:14;7.70;;;5.38;;
28714;SDS011;15886;49.170;14.572;2023-06-19T13:21:43;7.40;;;5.38;;
28714;SDS011;15886;49.170;14.572;2023-06-19T13:24:11;7.45;;;5.45;;
28714;SDS011;15886;49.170;14.572;2023-06-19T13:26:40;7.20;;;5.28;;
28714;SDS011;15886;49.170;14.572;2023-06-19T13:29:08;6.13;;;5.28;;
28714;SDS011;15886;49.170;14.572;2023-06-19T13:31:37;6.53;;;5.30;;
28714;SDS011;15886;49.170;14.572;2023-06-19T13:34:05;6.90;;;5.38;;
28714;SDS011;15886;49.170;14.572;2023-06-19T13:36:33;7.25;;;5.45;;
28714;SDS011;15886;49.170;14.572;2023-06-19T13:39:01;9.85;;;7.43;;
28714;SDS011;15886;49.170;14.572;2023-06-19T13:41:30;7.18;;;5.95;;
28714;SDS011;15886;49.170;14.572;2023-06-19T13:43:59;6.47;;;5.05;;
28714;SDS011;15886;49.170;14.572;2023-06-19T13:46:28;7.45;;;5.78;;
28714;SDS011;15886;49.170;14.572;2023-06-19T13:48:58;6.70;;;5.13;;
28714;SDS011;15886;49.170;14.572;2023-06-19T13:51:28;8.20;;;5.57;;
28714;SDS011;15886;49.170;14.572;2023-06-19T13:53:56;7.32;;;5.10;;
28714;SDS011;15886;49.170;14.572;2023-06-19T13:56:26;7.85;;;5.35;;
28714;SDS011;15886;49.170;14.572;2023-06-19T13:58:54;7.25;;;5.53;;
28714;SDS011;15886;49.170;14.572;2023-06-19T14:01:22;6.70;;;4.70;;
28714;SDS011;15886;49.170;14.572;2023-06-19T14:03:52;7.40;;;5.45;;
28714;SDS011;15886;49.170;14.572;2023-06-19T14:06:20;6.78;;;5.45;;
28714;SDS011;15886;49.170;14.572;2023-06-19T14:08:49;7.22;;;5.53;;
28714;SDS011;15886;49.170;14.572;2023-06-19T14:11:18;6.32;;;5.10;;
28714;SDS011;15886;49.170;14.572;2023-06-19T14:13:46;7.50;;;5.50;;
28714;SDS011;15886;49.170;14.572;2023-06-19T14:16:15;9.05;;;5.35;;
28714;SDS011;15886;49.170;14.572;2023-06-19T14:18:43;7.65;;;5.60;;
28714;SDS011;15886;49.170;14.572;2023-06-19T14:21:11;6.32;;;5.07;;
28714;SDS011;15886;49.170;14.572;2023-06-19T14:23:40;6.28;;;5.00;;
28714;SDS011;15886;49.170;14.572;2023-06-19T14:26:10;7.63;;;5.57;;
28714;SDS011;15886;49.170;14.572;2023-06-19T14:28:39;9.10;;;5.47;;
28714;SDS011;15886;49.170;14.572;2023-06-19T14:31:08;7.72;;;5.90;;
28714;SDS011;15886;49.170;14.572;2023-06-19T14:33:37;7.00;;;5.18;;
28714;SDS011;15886;49.170;14.572;2023-06-19T14:36:05;6.68;;;5.03;;
28714;SDS011;15886;49.170;14.572;2023-06-19T14:38:33;7.20;;;5.25;;
28714;SDS011;15886;49.170;14.572;2023-06-19T14:41:02;5.70;;;4.63;;
28714;SDS011;15886;49.170;14.572;2023-06-19T14:43:30;7.93;;;5.50;;